createdAt,value
2018-11-13T00:01:36.548Z,95525.70
2018-11-13T00:04:40.879Z,95521.70
2018-11-13T00:07:45.427Z,95519.73
2018-11-13T00:10:50.360Z,95521.08
2018-11-13T00:13:54.775Z,95524.59
2018-11-13T00:16:59.702Z,95526.63
2018-11-13T00:20:04.147Z,95532.43
2018-11-13T00:23:08.557Z,95537.23
2018-11-13T00:26:12.968Z,95534.95
2018-11-13T00:29:17.351Z,95536.25
2018-11-13T00:32:21.961Z,95539.18
2018-11-13T00:35:26.674Z,95540.75
2018-11-13T00:38:31.356Z,95531.53
2018-11-13T00:41:36.261Z,95531.86
2018-11-13T00:44:41.102Z,95544.69
2018-11-13T00:47:45.910Z,95543.36
2018-11-13T00:50:50.501Z,95549.20
2018-11-13T00:53:54.965Z,95538.88
2018-11-13T00:56:59.528Z,95542.06
2018-11-13T01:00:03.942Z,95529.96
2018-11-13T01:03:08.374Z,95526.23
2018-11-13T01:06:12.752Z,95523.48
2018-11-13T01:09:17.131Z,95519.79
2018-11-13T01:12:21.655Z,95523.99
2018-11-13T01:15:26.073Z,95523.00
2018-11-13T01:18:30.484Z,95523.80
2018-11-13T01:21:34.852Z,95527.72
2018-11-13T01:24:39.339Z,95521.59
2018-11-13T01:27:44.512Z,95519.00
2018-11-13T01:30:48.883Z,95513.45
2018-11-13T01:33:53.294Z,95516.14
2018-11-13T01:36:57.797Z,95513.16
2018-11-13T01:40:02.340Z,95510.57
2018-11-13T01:43:06.805Z,95507.84
2018-11-13T01:46:11.287Z,95504.75
2018-11-13T01:49:16.018Z,95505.28
2018-11-13T01:52:20.421Z,95508.52
2018-11-13T01:55:24.793Z,95509.58
2018-11-13T01:58:29.251Z,95511.17
2018-11-13T02:01:33.713Z,95505.48
2018-11-13T02:04:38.228Z,95496.05
2018-11-13T02:07:42.646Z,95502.33
2018-11-13T02:10:47.070Z,95495.65
2018-11-13T02:13:51.498Z,95497.84
2018-11-13T02:16:55.938Z,95496.75
2018-11-13T02:20:00.508Z,95488.63
2018-11-13T02:23:04.978Z,95491.42
2018-11-13T02:26:09.387Z,95497.70
2018-11-13T02:29:13.837Z,95503.95
2018-11-13T02:32:18.253Z,95506.16
2018-11-13T02:35:22.745Z,95501.51
2018-11-13T02:38:27.025Z,95507.85
2018-11-13T02:41:31.522Z,95505.18
2018-11-13T02:44:35.940Z,95514.40
2018-11-13T02:47:40.897Z,95505.17
2018-11-13T02:50:45.343Z,95500.12
2018-11-13T02:53:49.786Z,95500.03
2018-11-13T02:56:54.166Z,95499.38
2018-11-13T02:59:58.643Z,95495.46
2018-11-13T03:03:03.305Z,95482.44
2018-11-13T03:06:07.719Z,95481.50
2018-11-13T03:09:12.148Z,95473.02
2018-11-13T03:12:16.506Z,95477.71
2018-11-13T03:15:21.587Z,95472.38
2018-11-13T03:18:25.944Z,95470.79
2018-11-13T03:21:30.445Z,95462.27
2018-11-13T03:24:35.279Z,95457.98
2018-11-13T03:27:40.119Z,95465.98
2018-11-13T03:30:44.537Z,95467.53
2018-11-13T03:33:49.046Z,95464.56
2018-11-13T03:36:53.451Z,95453.84
2018-11-13T03:39:57.903Z,95454.58
2018-11-13T03:43:02.304Z,95454.14
2018-11-13T03:46:06.725Z,95451.41
2018-11-13T03:49:11.113Z,95459.03
2018-11-13T03:52:15.538Z,95457.59
2018-11-13T03:55:20.571Z,95463.77
2018-11-13T03:58:24.998Z,95472.04
2018-11-13T04:01:29.460Z,95471.72
2018-11-13T04:04:33.899Z,95470.98
2018-11-13T04:07:47.607Z,95480.47
2018-11-13T04:10:51.983Z,95477.02
2018-11-13T04:13:56.396Z,95486.65
2018-11-13T04:17:00.817Z,95484.00
2018-11-13T04:20:09.523Z,95490.53
2018-11-13T04:23:13.981Z,95493.77
2018-11-13T04:26:18.405Z,95506.25
2018-11-13T04:29:22.750Z,95515.95
2018-11-13T04:32:27.122Z,95515.49
2018-11-13T04:35:31.447Z,95515.25
2018-11-13T04:38:35.803Z,95517.97
2018-11-13T04:41:40.220Z,95512.30
2018-11-13T04:44:44.592Z,95526.31
2018-11-13T04:47:49.628Z,95527.64
2018-11-13T04:50:53.990Z,95532.36
2018-11-13T04:53:58.565Z,95526.63
2018-11-13T04:57:02.985Z,95534.48
2018-11-13T05:00:14.212Z,95547.02
2018-11-13T05:03:18.577Z,95554.34
2018-11-13T05:06:22.974Z,95556.70
2018-11-13T05:09:27.353Z,95555.33
2018-11-13T05:12:31.821Z,95564.80
2018-11-13T05:15:36.165Z,95566.22
2018-11-13T05:18:40.609Z,95569.12
2018-11-13T05:21:45.072Z,95571.23
2018-11-13T05:24:49.547Z,95585.95
2018-11-13T05:27:54.118Z,95592.02
2018-11-13T05:30:58.613Z,95599.48
2018-11-13T05:34:03.077Z,95605.27
2018-11-13T05:37:07.628Z,95612.11
2018-11-13T05:40:18.349Z,95615.56
2018-11-13T05:43:22.908Z,95622.62
2018-11-13T05:46:28.362Z,95621.94
2018-11-13T05:49:34.481Z,95635.60
2018-11-13T05:52:39.365Z,95644.24
2018-11-13T05:55:43.736Z,95650.77
2018-11-13T05:58:48.483Z,95679.24
2018-11-13T06:01:53.000Z,95679.83
2018-11-13T06:04:57.816Z,95678.86
2018-11-13T06:08:02.579Z,95689.91
2018-11-13T06:11:07.500Z,95688.41
2018-11-13T06:14:13.923Z,95702.84
2018-11-13T06:17:19.956Z,95708.41
2018-11-13T06:20:24.496Z,95710.80
2018-11-13T06:23:28.986Z,95712.64
2018-11-13T06:26:33.747Z,95712.12
2018-11-13T06:29:38.398Z,95710.77
2018-11-13T06:32:43.492Z,95724.70
2018-11-13T06:35:48.248Z,95731.77
2018-11-13T06:38:53.186Z,95738.34
2018-11-13T06:41:57.875Z,95736.77
2018-11-13T06:45:02.810Z,95739.92
2018-11-13T06:48:07.662Z,95740.90
2018-11-13T06:51:12.572Z,95751.11
2018-11-13T06:55:30.048Z,95759.19
2018-11-13T06:58:34.886Z,95765.45
2018-11-13T07:01:39.528Z,95760.68
2018-11-13T07:04:44.942Z,95766.14
2018-11-13T07:07:49.642Z,95768.47
2018-11-13T07:10:54.444Z,95770.80
2018-11-13T07:13:59.147Z,95768.90
2018-11-13T07:17:03.915Z,95769.08
2018-11-13T07:20:09.052Z,95776.36
2018-11-13T07:23:13.799Z,95782.62
2018-11-13T07:26:18.985Z,95799.25
2018-11-13T07:29:23.654Z,95795.45
2018-11-13T07:32:28.321Z,95800.89
2018-11-13T07:35:33.008Z,95801.20
2018-11-13T07:38:37.820Z,95806.78
2018-11-13T07:41:42.685Z,95802.04
2018-11-13T07:44:47.572Z,95804.70
2018-11-13T07:47:53.115Z,95803.55
2018-11-13T07:50:57.973Z,95808.83
2018-11-13T07:54:02.981Z,95819.95
2018-11-13T07:57:08.727Z,95820.67
2018-11-13T08:00:17.993Z,95820.27
2018-11-13T08:03:39.870Z,95824.77
2018-11-13T08:06:44.701Z,95822.89
2018-11-13T08:09:49.449Z,95831.28
2018-11-13T08:12:54.367Z,95835.55
2018-11-13T08:15:59.435Z,95835.23
2018-11-13T08:19:04.285Z,95837.45
2018-11-13T08:22:09.266Z,95846.36
2018-11-13T08:25:14.218Z,95850.50
2018-11-13T08:28:19.038Z,95850.62
2018-11-13T08:31:23.894Z,95853.73
2018-11-13T08:34:28.784Z,95871.56
2018-11-13T08:37:33.780Z,95872.05
2018-11-13T08:40:38.579Z,95878.59
2018-11-13T08:43:43.425Z,95870.14
2018-11-13T08:46:48.056Z,95873.91
2018-11-13T08:49:53.145Z,95892.83
2018-11-13T08:52:57.869Z,95898.57
2018-11-13T08:56:02.463Z,95902.36
2018-11-13T08:59:08.264Z,95905.86
2018-11-13T09:02:13.003Z,95916.11
2018-11-13T09:05:18.348Z,95909.25
2018-11-13T09:08:22.997Z,95909.08
2018-11-13T09:11:31.650Z,95902.66
2018-11-13T09:14:36.415Z,95909.67
2018-11-13T09:17:41.377Z,95903.50
2018-11-13T09:20:46.208Z,95910.06
2018-11-13T09:23:50.953Z,95914.53
2018-11-13T09:26:55.856Z,95918.89
2018-11-13T09:30:00.850Z,95925.95
2018-11-13T09:33:05.993Z,95919.80
2018-11-13T09:36:10.767Z,95918.33
2018-11-13T09:39:15.696Z,95920.78
2018-11-13T09:42:20.889Z,95923.48
2018-11-13T09:45:25.521Z,95915.41
2018-11-13T09:48:30.111Z,95913.55
2018-11-13T09:51:35.362Z,95922.44
2018-11-13T09:54:40.249Z,95925.25
2018-11-13T09:57:50.324Z,95929.11
2018-11-13T10:01:00.797Z,95946.78
2018-11-13T10:04:15.811Z,95940.70
2018-11-13T10:07:20.114Z,95952.67
2018-11-13T10:10:25.717Z,95959.45
2018-11-13T10:13:35.104Z,95958.33
2018-11-13T10:16:40.677Z,95956.28
2018-11-13T10:19:46.337Z,95956.30
2018-11-13T10:22:52.307Z,95970.55
2018-11-13T10:26:03.173Z,95973.09
2018-11-13T10:29:10.227Z,95977.31
2018-11-13T10:32:15.354Z,95981.84
2018-11-13T10:35:23.062Z,95994.36
2018-11-13T10:38:31.676Z,96000.96
2018-11-13T10:41:38.586Z,96003.78
2018-11-13T10:44:44.107Z,96009.19
2018-11-13T10:47:48.981Z,96009.11
2018-11-13T10:50:54.064Z,96012.70
2018-11-13T10:54:00.661Z,96015.44
2018-11-13T10:57:06.159Z,96032.50
2018-11-13T11:00:19.082Z,96034.62
2018-11-13T11:03:30.271Z,96044.00
2018-11-13T11:06:36.802Z,96046.56
2018-11-13T11:09:41.890Z,96045.31
2018-11-13T11:12:46.696Z,96045.91
2018-11-13T11:15:51.368Z,96047.08
2018-11-13T11:18:56.168Z,96049.67
2018-11-13T11:22:00.784Z,96044.52
2018-11-13T11:25:07.557Z,96044.14
2018-11-13T11:28:12.641Z,96056.59
2018-11-13T11:31:17.388Z,96059.32
2018-11-13T11:34:22.044Z,96060.06
2018-11-13T11:37:27.092Z,96068.33
2018-11-13T11:40:34.219Z,96068.45
2018-11-13T11:43:39.570Z,96076.80
2018-11-13T11:46:44.179Z,96092.82
2018-11-13T11:49:49.332Z,96079.31
2018-11-13T11:52:58.060Z,96088.92
2018-11-13T11:56:05.126Z,96082.72
2018-11-13T11:59:09.945Z,96088.83
2018-11-13T12:02:15.529Z,96084.71
2018-11-13T12:05:24.107Z,96090.28
2018-11-13T12:08:32.898Z,96092.79
2018-11-13T12:11:38.660Z,96089.16
2018-11-13T12:14:45.802Z,96093.39
2018-11-13T12:17:57.955Z,96095.64
2018-11-13T12:21:02.783Z,96105.25
2018-11-13T12:24:07.502Z,96110.95
2018-11-13T12:27:11.985Z,96106.47
2018-11-13T12:30:20.384Z,96109.98
2018-11-13T12:33:24.866Z,96109.24
2018-11-13T12:36:29.376Z,96121.91
2018-11-13T12:39:33.825Z,96117.38
2018-11-13T12:42:38.297Z,96117.48
2018-11-13T12:45:42.711Z,96118.20
2018-11-13T12:48:47.271Z,96118.83
2018-11-13T12:51:56.781Z,96121.34
2018-11-13T12:55:01.385Z,96120.25
2018-11-13T12:58:06.837Z,96131.16
2018-11-13T13:01:11.472Z,96130.55
2018-11-13T13:04:16.048Z,96123.41
2018-11-13T13:07:20.488Z,96129.62
2018-11-13T13:10:24.921Z,96129.95
2018-11-13T13:13:29.358Z,96135.27
2018-11-13T13:16:33.876Z,96130.02
2018-11-13T13:19:38.445Z,96130.70
2018-11-13T13:22:43.252Z,96138.09
2018-11-13T13:25:47.830Z,96134.11
2018-11-13T13:28:52.392Z,96127.89
2018-11-13T13:31:57.012Z,96133.14
2018-11-13T13:35:01.542Z,96130.78
2018-11-13T13:38:07.415Z,96128.61
2018-11-13T13:41:11.916Z,96138.46
2018-11-13T13:44:16.532Z,96140.88
2018-11-13T13:47:21.012Z,96142.89
2018-11-13T13:50:25.621Z,96143.38
2018-11-13T13:53:30.278Z,96153.48
2018-11-13T13:56:35.204Z,96163.92
2018-11-13T13:59:39.901Z,96165.57
2018-11-13T14:02:44.375Z,96177.73
2018-11-13T14:05:49.133Z,96177.95
2018-11-13T14:08:53.714Z,96186.64
2018-11-13T14:11:58.154Z,96179.36
2018-11-13T14:15:04.104Z,96187.58
2018-11-13T14:18:08.440Z,96192.57
2018-11-13T14:21:13.046Z,96206.37
2018-11-13T14:24:17.567Z,96202.19
2018-11-13T14:27:22.369Z,96208.00
2018-11-13T14:30:29.024Z,96215.14
2018-11-13T14:33:33.632Z,96219.17
2018-11-13T14:36:38.147Z,96224.71
2018-11-13T14:39:42.541Z,96223.83
2018-11-13T14:42:47.440Z,96220.43
2018-11-13T14:45:51.946Z,96224.17
2018-11-13T14:48:56.539Z,96220.72
2018-11-13T14:52:07.579Z,96241.08
2018-11-13T14:55:16.881Z,96237.63
2018-11-13T14:58:21.255Z,96240.82
2018-11-13T15:01:25.746Z,96241.86
2018-11-13T15:04:30.137Z,96238.57
2018-11-13T15:07:34.611Z,96243.14
2018-11-13T15:10:46.345Z,96247.12
2018-11-13T15:13:50.842Z,96246.84
2018-11-13T15:17:02.670Z,96242.47
2018-11-13T15:20:11.948Z,96257.27
2018-11-13T15:23:17.561Z,96250.23
2018-11-13T15:26:22.139Z,96260.63
2018-11-13T15:29:29.493Z,96271.45
2018-11-13T15:32:39.091Z,96274.30
2018-11-13T15:35:49.388Z,96281.84
2018-11-13T15:39:12.172Z,96265.61
2018-11-13T15:42:17.651Z,96273.04
2018-11-13T15:45:23.098Z,96278.39
2018-11-13T15:48:28.532Z,96292.17
2018-11-13T15:51:33.031Z,96307.18
2018-11-13T15:54:39.477Z,96317.30
2018-11-13T15:57:50.192Z,96307.94
2018-11-13T16:00:56.801Z,96307.65
2018-11-13T16:04:02.285Z,96316.84
2018-11-13T16:07:07.073Z,96324.34
2018-11-13T16:10:12.608Z,96328.31
2018-11-13T16:13:21.268Z,96332.09
2018-11-13T16:16:25.785Z,96332.44
2018-11-13T16:19:30.289Z,96335.55
2018-11-13T16:22:34.881Z,96331.56
2018-11-13T16:25:39.420Z,96326.48
2018-11-13T16:28:45.344Z,96347.37
2018-11-13T16:31:50.805Z,96344.52
2018-11-13T16:34:55.353Z,96337.00
2018-11-13T16:38:01.601Z,96356.22
2018-11-13T16:41:06.079Z,96348.58
2018-11-13T16:44:10.948Z,96346.55
2018-11-13T16:47:21.409Z,96355.97
2018-11-13T16:50:29.172Z,96360.58
2018-11-13T16:53:39.921Z,96350.88
2018-11-13T16:56:47.937Z,96355.97
2018-11-13T16:59:59.297Z,96357.90
2018-11-13T17:03:03.767Z,96352.66
2018-11-13T17:06:37.243Z,96349.47
2018-11-13T17:09:56.183Z,96353.44
2018-11-13T17:13:01.571Z,96356.47
2018-11-13T17:16:22.646Z,96361.05
2018-11-13T17:19:27.178Z,96362.27
2018-11-13T17:22:31.703Z,96364.10
2018-11-13T17:25:41.752Z,96368.88
2018-11-13T17:28:52.793Z,96378.36
2018-11-13T17:32:01.968Z,96375.77
2018-11-13T17:35:07.993Z,96379.77
2018-11-13T17:38:12.863Z,96375.79
2018-11-13T17:41:17.248Z,96377.66
2018-11-13T17:44:21.931Z,96377.91
2018-11-13T17:47:27.479Z,96377.62
2018-11-13T17:50:34.385Z,96377.14
2018-11-13T17:53:43.612Z,96375.39
2018-11-13T17:56:51.224Z,96370.59
2018-11-13T17:59:56.990Z,96362.75
2018-11-13T18:03:04.723Z,96365.55
2018-11-13T18:06:09.353Z,96361.14
2018-11-13T18:09:15.372Z,96371.11
2018-11-13T18:12:20.303Z,96373.58
2018-11-13T18:15:26.841Z,96362.31
2018-11-13T18:18:31.861Z,96369.20
2018-11-13T18:21:41.183Z,96369.31
2018-11-13T18:24:48.580Z,96379.56
2018-11-13T18:27:54.832Z,96372.63
2018-11-13T18:31:00.413Z,96378.05
2018-11-13T18:34:05.806Z,96378.58
2018-11-13T18:37:13.295Z,96376.61
2018-11-13T18:43:31.259Z,96388.98
2018-11-13T18:46:35.583Z,96379.36
2018-11-13T18:49:40.113Z,96383.15
2018-11-13T18:52:44.725Z,96374.80
2018-11-13T18:55:49.063Z,96376.17
2018-11-13T18:58:53.577Z,96372.80
2018-11-13T19:01:58.012Z,96382.88
2018-11-13T19:05:02.470Z,96378.34
2018-11-13T19:08:07.684Z,96376.31
2018-11-13T19:11:12.341Z,96386.11
2018-11-13T19:14:16.611Z,96397.52
2018-11-13T19:17:21.087Z,96398.66
2018-11-13T19:20:26.423Z,96400.05
2018-11-13T19:23:30.886Z,96394.83
2018-11-13T19:26:35.290Z,96404.89
2018-11-13T19:29:39.896Z,96409.65
2018-11-13T19:32:44.478Z,96411.81
2018-11-13T19:35:49.034Z,96406.84
2018-11-13T19:38:53.402Z,96403.41
2018-11-13T19:41:57.792Z,96405.78
2018-11-13T19:45:02.208Z,96405.28
2018-11-13T19:48:06.720Z,96408.19
2018-11-13T19:51:11.048Z,96408.98
2018-11-13T19:54:15.397Z,96410.58
2018-11-13T19:57:19.699Z,96408.75
2018-11-13T20:00:31.511Z,96411.91
2018-11-13T20:03:35.832Z,96411.13
2018-11-13T20:06:40.132Z,96414.00
2018-11-13T20:09:44.609Z,96417.19
2018-11-13T20:12:49.739Z,96421.92
2018-11-13T20:15:54.238Z,96420.34
2018-11-13T20:18:58.865Z,96416.13
2018-11-13T20:22:03.374Z,96423.00
2018-11-13T20:25:10.942Z,96427.74
2018-11-13T20:28:15.445Z,96419.56
2018-11-13T20:31:20.017Z,96420.36
2018-11-13T20:34:24.269Z,96424.02
2018-11-13T20:37:29.488Z,96425.34
2018-11-13T20:40:35.179Z,96421.34
2018-11-13T20:43:39.685Z,96419.28
2018-11-13T20:46:44.527Z,96427.92
2018-11-13T20:49:48.987Z,96426.88
2018-11-13T20:52:53.420Z,96434.77
2018-11-13T20:55:57.791Z,96432.90
2018-11-13T20:59:02.168Z,96427.98
2018-11-13T21:02:06.716Z,96425.87
2018-11-13T21:05:11.039Z,96417.84
2018-11-13T21:08:15.432Z,96428.58
2018-11-13T21:11:19.825Z,96432.78
2018-11-13T21:14:24.131Z,96435.40
2018-11-13T21:17:28.473Z,96431.47
2018-11-13T21:20:32.927Z,96432.78
2018-11-13T21:23:37.300Z,96421.98
2018-11-13T21:26:41.600Z,96421.52
2018-11-13T21:29:46.079Z,96420.39
2018-11-13T21:32:51.103Z,96422.53
2018-11-13T21:35:55.386Z,96426.41
2018-11-13T21:38:59.712Z,96424.70
2018-11-13T21:42:04.895Z,96421.76
2018-11-13T21:45:10.351Z,96425.44
2018-11-13T21:48:14.812Z,96431.45
2018-11-13T21:51:19.119Z,96429.59
2018-11-13T21:54:23.498Z,96436.19
2018-11-13T21:57:27.767Z,96438.98
2018-11-13T22:00:33.883Z,96444.66
2018-11-13T22:03:38.244Z,96444.09
2018-11-13T22:06:44.543Z,96444.36
2018-11-13T22:09:48.820Z,96443.35
2018-11-13T22:12:54.305Z,96441.52
2018-11-13T22:15:58.210Z,96440.47
2018-11-13T22:19:02.499Z,96442.59
2018-11-13T22:22:06.919Z,96440.45
2018-11-13T22:25:15.834Z,96438.36
2018-11-13T22:28:20.203Z,96444.03
2018-11-13T22:31:24.590Z,96446.02
2018-11-13T22:34:28.872Z,96448.42
2018-11-13T22:37:33.172Z,96447.39
2018-11-13T22:40:37.477Z,96456.73
2018-11-13T22:43:41.763Z,96457.98
2018-11-13T22:46:46.091Z,96451.86
2018-11-13T22:49:50.383Z,96454.80
2018-11-13T22:52:55.082Z,96456.63
2018-11-13T22:55:59.324Z,96458.05
2018-11-13T22:59:03.612Z,96462.99
2018-11-13T23:02:07.928Z,96457.73
2018-11-13T23:05:12.304Z,96448.95
2018-11-13T23:08:17.883Z,96452.77
2018-11-13T23:11:22.155Z,96453.62
2018-11-13T23:14:26.436Z,96454.41
2018-11-13T23:17:30.775Z,96454.77
2018-11-13T23:20:35.066Z,96447.53
2018-11-13T23:23:39.335Z,96456.88
2018-11-13T23:26:43.656Z,96444.45
2018-11-13T23:29:47.922Z,96434.70
2018-11-13T23:32:52.604Z,96439.68
2018-11-13T23:35:57.108Z,96434.19
2018-11-13T23:39:01.276Z,96444.98
2018-11-13T23:42:05.638Z,96437.94
2018-11-13T23:45:10.456Z,96437.42
2018-11-13T23:48:14.754Z,96436.52
2018-11-13T23:51:19.169Z,96436.98
2018-11-13T23:54:23.491Z,96434.31
2018-11-13T23:57:27.811Z,96434.04
